createdAt,value
2018-07-01T00:00:32.295Z,0.00
2018-07-01T00:01:32.319Z,0.00
2018-07-01T00:02:32.343Z,0.00
2018-07-01T00:03:32.365Z,0.00
2018-07-01T00:04:32.385Z,0.00
2018-07-01T00:05:32.409Z,0.00
2018-07-01T00:06:32.431Z,0.00
2018-07-01T00:07:32.453Z,0.00
2018-07-01T00:08:32.482Z,0.00
2018-07-01T00:09:32.497Z,0.00
2018-07-01T00:10:32.520Z,0.00
2018-07-01T00:11:32.546Z,0.00
2018-07-01T00:12:32.570Z,0.00
2018-07-01T00:13:38.856Z,0.00
2018-07-01T00:14:32.612Z,0.00
2018-07-01T00:15:32.632Z,0.00
2018-07-01T00:16:32.659Z,0.00
2018-07-01T00:17:32.679Z,0.00
2018-07-01T00:18:32.703Z,0.00
2018-07-01T00:19:32.727Z,0.00
2018-07-01T00:20:32.748Z,0.00
2018-07-01T00:21:32.767Z,0.00
2018-07-01T00:22:32.791Z,0.00
2018-07-01T00:23:32.812Z,0.00
2018-07-01T00:24:32.835Z,0.00
2018-07-01T00:25:32.860Z,0.00
2018-07-01T00:26:32.880Z,0.00
2018-07-01T00:27:32.905Z,0.00
2018-07-01T00:28:32.926Z,0.00
2018-07-01T00:29:32.949Z,0.00
2018-07-01T00:30:32.969Z,0.00
2018-07-01T00:31:32.992Z,0.00
2018-07-01T00:32:33.015Z,0.00
2018-07-01T00:33:33.038Z,0.00
2018-07-01T00:34:33.061Z,0.00
2018-07-01T00:35:33.084Z,0.00
2018-07-01T00:36:33.106Z,0.00
2018-07-01T00:37:33.129Z,0.00
2018-07-01T00:38:33.152Z,0.00
2018-07-01T00:39:33.178Z,0.00
2018-07-01T00:40:33.194Z,0.00
2018-07-01T00:41:33.218Z,0.00
2018-07-01T00:42:33.242Z,0.00
2018-07-01T00:43:33.260Z,0.00
2018-07-01T00:44:33.287Z,0.00
2018-07-01T00:45:33.305Z,0.00
2018-07-01T00:46:33.331Z,0.00
2018-07-01T00:47:33.350Z,0.00
2018-07-01T00:48:33.373Z,0.00
2018-07-01T00:49:33.398Z,0.00
2018-07-01T00:50:33.417Z,0.00
2018-07-01T00:51:33.440Z,0.00
2018-07-01T00:52:33.463Z,0.00
2018-07-01T00:53:33.484Z,0.00
2018-07-01T00:54:33.506Z,0.00
2018-07-01T00:55:33.529Z,0.00
2018-07-01T00:56:33.552Z,0.00
2018-07-01T00:57:33.575Z,0.00
2018-07-01T00:58:33.595Z,0.00
2018-07-01T00:59:33.618Z,0.00
2018-07-01T01:00:33.643Z,0.00
2018-07-01T01:01:33.662Z,0.00
2018-07-01T01:02:33.684Z,0.00
2018-07-01T01:03:33.709Z,0.00
2018-07-01T01:04:33.731Z,0.00
2018-07-01T01:05:33.753Z,0.00
2018-07-01T01:06:33.774Z,0.00
2018-07-01T01:07:33.800Z,0.00
2018-07-01T01:08:33.821Z,0.00
2018-07-01T01:09:33.842Z,0.00
2018-07-01T01:10:33.869Z,0.00
2018-07-01T01:11:33.887Z,0.00
2018-07-01T01:12:33.907Z,0.00
2018-07-01T01:13:33.934Z,0.00
2018-07-01T01:14:33.955Z,0.00
2018-07-01T01:15:33.977Z,0.00
2018-07-01T01:16:33.997Z,0.00
2018-07-01T01:17:34.017Z,0.00
2018-07-01T01:18:34.043Z,0.00
2018-07-01T01:19:34.067Z,0.00
2018-07-01T01:20:34.085Z,0.00
2018-07-01T01:21:34.110Z,0.00
2018-07-01T01:22:34.132Z,0.00
2018-07-01T01:23:34.151Z,0.00
2018-07-01T01:24:34.176Z,0.00
2018-07-01T01:25:34.197Z,0.00
2018-07-01T01:26:34.221Z,0.00
2018-07-01T01:27:34.241Z,0.00
2018-07-01T01:28:34.265Z,0.00
2018-07-01T01:29:34.286Z,0.00
2018-07-01T01:30:34.310Z,0.00
2018-07-01T01:31:34.333Z,0.00
2018-07-01T01:32:34.354Z,0.00
2018-07-01T01:33:34.376Z,0.00
2018-07-01T01:34:34.397Z,0.00
2018-07-01T01:35:34.420Z,0.00
2018-07-01T01:36:34.444Z,0.00
2018-07-01T01:37:34.464Z,0.00
2018-07-01T01:38:34.486Z,0.00
2018-07-01T01:39:34.509Z,0.00
2018-07-01T01:40:34.529Z,0.00
2018-07-01T01:41:34.554Z,0.00
2018-07-01T01:42:34.575Z,0.00
2018-07-01T01:43:34.595Z,0.00
2018-07-01T01:44:34.619Z,0.00
2018-07-01T01:45:34.638Z,0.00
2018-07-01T01:46:34.661Z,0.00
2018-07-01T01:47:34.684Z,0.00
2018-07-01T01:48:34.709Z,0.00
2018-07-01T01:49:34.727Z,0.00
2018-07-01T01:50:34.753Z,0.00
2018-07-01T01:51:34.780Z,0.00
2018-07-01T01:52:34.796Z,0.00
2018-07-01T01:53:34.818Z,0.00
2018-07-01T01:54:34.839Z,0.00
2018-07-01T01:55:34.860Z,0.00
2018-07-01T01:56:34.886Z,0.00
2018-07-01T01:57:34.907Z,0.00
2018-07-01T01:58:34.926Z,0.00
2018-07-01T01:59:34.950Z,0.00
2018-07-01T02:00:34.971Z,0.00
2018-07-01T02:01:34.990Z,0.00
2018-07-01T02:02:35.016Z,0.00
2018-07-01T02:03:35.038Z,0.00
2018-07-01T02:04:35.059Z,0.00
2018-07-01T02:05:35.087Z,0.00
2018-07-01T02:06:35.106Z,0.00
2018-07-01T02:07:35.127Z,0.00
2018-07-01T02:08:35.152Z,0.00
2018-07-01T02:09:35.170Z,0.00
2018-07-01T02:10:35.192Z,0.00
2018-07-01T02:11:35.212Z,0.00
2018-07-01T02:12:35.235Z,0.00
2018-07-01T02:13:35.261Z,0.00
2018-07-01T02:14:35.280Z,0.00
2018-07-01T02:15:35.303Z,0.00
2018-07-01T02:16:35.325Z,0.00
2018-07-01T02:17:35.351Z,0.00
2018-07-01T02:18:35.365Z,0.00
2018-07-01T02:19:35.390Z,0.00
2018-07-01T02:20:35.412Z,0.00
2018-07-01T02:21:35.432Z,0.00
2018-07-01T02:22:35.455Z,0.00
2018-07-01T02:23:35.476Z,0.00
2018-07-01T02:24:35.498Z,0.00
2018-07-01T02:25:35.521Z,4.00
2018-07-01T02:26:35.541Z,4.00
2018-07-01T02:27:35.566Z,4.00
2018-07-01T02:28:35.589Z,4.00
2018-07-01T02:29:35.610Z,0.00
2018-07-01T02:30:35.631Z,0.00
2018-07-01T02:31:35.652Z,4.00
2018-07-01T02:32:35.674Z,4.00
2018-07-01T02:33:35.698Z,4.00
2018-07-01T02:34:35.719Z,4.00
2018-07-01T02:35:35.743Z,4.00
2018-07-01T02:36:35.764Z,4.00
2018-07-01T02:37:35.783Z,4.00
2018-07-01T02:38:35.805Z,8.00
2018-07-01T02:39:35.827Z,4.00
2018-07-01T02:40:35.858Z,8.00
2018-07-01T02:41:35.876Z,8.00
2018-07-01T02:42:35.900Z,8.00
2018-07-01T02:43:35.921Z,12.00
2018-07-01T02:44:35.940Z,12.00
2018-07-01T02:45:35.958Z,12.00
2018-07-01T02:46:35.982Z,16.00
2018-07-01T02:47:36.002Z,20.00
2018-07-01T02:48:36.026Z,16.00
2018-07-01T02:49:36.047Z,20.00
2018-07-01T02:50:36.073Z,20.00
2018-07-01T02:51:36.093Z,28.00
2018-07-01T02:52:36.114Z,32.00
2018-07-01T02:53:36.143Z,32.00
2018-07-01T02:54:36.155Z,40.00
2018-07-01T02:55:36.181Z,40.00
2018-07-01T02:56:36.200Z,48.00
2018-07-01T02:57:36.221Z,52.00
2018-07-01T02:58:36.246Z,60.00
2018-07-01T02:59:36.267Z,64.00
2018-07-01T03:00:36.290Z,68.00
2018-07-01T03:01:36.311Z,80.00
2018-07-01T03:02:36.331Z,88.00
2018-07-01T03:03:36.355Z,96.00
2018-07-01T03:04:36.380Z,104.00
2018-07-01T03:05:36.395Z,112.00
2018-07-01T03:06:36.419Z,124.00
2018-07-01T03:07:36.442Z,136.00
2018-07-01T03:08:36.466Z,148.00
2018-07-01T03:09:36.489Z,160.00
2018-07-01T03:10:36.505Z,172.00
2018-07-01T03:11:36.527Z,188.00
2018-07-01T03:12:36.549Z,200.00
2018-07-01T03:13:36.572Z,216.00
2018-07-01T03:14:36.593Z,232.00
2018-07-01T03:15:36.617Z,248.00
2018-07-01T03:16:36.639Z,268.00
2018-07-01T03:17:36.659Z,284.00
2018-07-01T03:18:36.680Z,304.00
2018-07-01T03:19:36.703Z,324.00
2018-07-01T03:20:36.723Z,344.00
2018-07-01T03:21:36.746Z,364.00
2018-07-01T03:22:36.770Z,388.00
2018-07-01T03:23:36.789Z,408.00
2018-07-01T03:24:36.811Z,432.00
2018-07-01T03:25:36.834Z,452.00
2018-07-01T03:26:36.857Z,476.00
2018-07-01T03:27:36.878Z,500.00
2018-07-01T03:28:36.899Z,524.00
2018-07-01T03:29:36.921Z,548.00
2018-07-01T03:30:36.941Z,576.00
2018-07-01T03:31:36.966Z,600.00
2018-07-01T03:32:36.986Z,628.00
2018-07-01T03:33:37.007Z,652.00
2018-07-01T03:34:37.029Z,680.00
2018-07-01T03:35:37.052Z,704.00
2018-07-01T03:36:37.073Z,732.00
2018-07-01T03:37:37.092Z,760.00
2018-07-01T03:38:37.116Z,784.00
2018-07-01T03:39:37.138Z,812.00
2018-07-01T03:40:37.164Z,840.00
2018-07-01T03:41:37.180Z,864.00
2018-07-01T03:42:37.201Z,892.00
2018-07-01T03:43:37.223Z,920.00
2018-07-01T03:44:37.248Z,944.00
2018-07-01T03:45:37.269Z,972.00
2018-07-01T03:46:37.290Z,1000.00
2018-07-01T03:47:37.317Z,1024.00
2018-07-01T03:48:37.335Z,1052.00
2018-07-01T03:49:37.352Z,1080.00
2018-07-01T03:50:37.374Z,1104.00
2018-07-01T03:51:37.396Z,1128.00
2018-07-01T03:52:37.421Z,1156.00
2018-07-01T03:53:37.442Z,1180.00
2018-07-01T03:54:37.463Z,1204.00
2018-07-01T03:55:37.485Z,1228.00
2018-07-01T03:56:37.505Z,1256.00
2018-07-01T03:57:37.581Z,1284.00
2018-07-01T03:58:37.551Z,1304.00
2018-07-01T03:59:37.570Z,1328.00
2018-07-01T04:00:37.591Z,1348.00
2018-07-01T04:01:37.613Z,1376.00
2018-07-01T04:02:37.635Z,1400.00
2018-07-01T04:03:37.656Z,1424.00
2018-07-01T04:04:37.679Z,1448.00
2018-07-01T04:05:37.699Z,1468.00
2018-07-01T04:06:37.721Z,1492.00
2018-07-01T04:07:37.745Z,1520.00
2018-07-01T04:08:37.768Z,1540.00
2018-07-01T04:09:37.789Z,1560.00
2018-07-01T04:10:37.807Z,1588.00
2018-07-01T04:11:37.835Z,1608.00
2018-07-01T04:12:37.852Z,1628.00
2018-07-01T04:13:37.875Z,1656.00
2018-07-01T04:14:37.896Z,1672.00
2018-07-01T04:15:37.917Z,1700.00
2018-07-01T04:16:37.942Z,1716.00
2018-07-01T04:17:37.962Z,1744.00
2018-07-01T04:18:37.985Z,1764.00
2018-07-01T04:19:38.003Z,1784.00
2018-07-01T04:20:38.027Z,1804.00
2018-07-01T04:21:38.049Z,1824.00
2018-07-01T04:22:38.069Z,1848.00
2018-07-01T04:23:38.093Z,1868.00
2018-07-01T04:24:38.115Z,1888.00
2018-07-01T04:25:38.133Z,1908.00
2018-07-01T04:26:38.154Z,1932.00
2018-07-01T04:27:38.176Z,1948.00
2018-07-01T04:28:38.201Z,1968.00
2018-07-01T04:29:38.221Z,1988.00
2018-07-01T04:30:38.241Z,2008.00
2018-07-01T04:31:38.263Z,2028.00
2018-07-01T04:32:38.287Z,2044.00
2018-07-01T04:33:38.306Z,2064.00
2018-07-01T04:34:38.328Z,2080.00
2018-07-01T04:35:38.350Z,2100.00
2018-07-01T04:36:38.376Z,2120.00
2018-07-01T04:37:38.394Z,2144.00
2018-07-01T04:38:38.417Z,2164.00
2018-07-01T04:39:38.443Z,2196.00
2018-07-01T04:40:38.459Z,2264.00
2018-07-01T04:41:38.485Z,2520.00
2018-07-01T04:42:38.505Z,2636.00
2018-07-01T04:43:38.525Z,2448.00
2018-07-01T04:44:38.547Z,2284.00
2018-07-01T04:45:38.567Z,2280.00
2018-07-01T04:46:38.592Z,2300.00
2018-07-01T04:47:38.614Z,2320.00
2018-07-01T04:48:38.635Z,2356.00
2018-07-01T04:49:38.655Z,2396.00
2018-07-01T04:50:38.677Z,2452.00
2018-07-01T04:51:38.701Z,2728.00
2018-07-01T04:52:38.727Z,3304.00
2018-07-01T04:53:38.740Z,3812.00
2018-07-01T04:54:38.771Z,3984.00
2018-07-01T04:55:38.786Z,4048.00
2018-07-01T04:56:38.808Z,4116.00
2018-07-01T04:57:38.829Z,4180.00
2018-07-01T04:58:38.853Z,4228.00
2018-07-01T04:59:38.872Z,4272.00
2018-07-01T05:00:38.895Z,4332.00
2018-07-01T05:01:38.917Z,4380.00
2018-07-01T05:02:38.937Z,4432.00
2018-07-01T05:03:38.959Z,4504.00
2018-07-01T05:04:38.981Z,4592.00
2018-07-01T05:05:39.003Z,4704.00
2018-07-01T05:06:39.029Z,4776.00
2018-07-01T05:07:39.049Z,4808.00
2018-07-01T05:08:39.073Z,4840.00
2018-07-01T05:09:39.090Z,4852.00
2018-07-01T05:10:39.115Z,4856.00
2018-07-01T05:11:39.136Z,4852.00
2018-07-01T05:12:39.158Z,4908.00
2018-07-01T05:13:39.179Z,4952.00
2018-07-01T05:14:39.204Z,4964.00
2018-07-01T05:15:39.227Z,4992.00
2018-07-01T05:16:39.252Z,5004.00
2018-07-01T05:17:39.272Z,5048.00
2018-07-01T05:18:39.294Z,5100.00
2018-07-01T05:19:39.315Z,5176.00
2018-07-01T05:20:39.337Z,5256.00
2018-07-01T05:21:39.359Z,5340.00
2018-07-01T05:22:39.384Z,5364.00
2018-07-01T05:23:39.407Z,5392.00
2018-07-01T05:24:39.429Z,5464.00
2018-07-01T05:25:39.450Z,5544.00
2018-07-01T05:26:39.474Z,5624.00
2018-07-01T05:27:39.618Z,5716.00
2018-07-01T05:28:39.520Z,5820.00
2018-07-01T05:29:39.539Z,5932.00
2018-07-01T05:30:39.564Z,6052.00
2018-07-01T05:31:39.594Z,6168.00
2018-07-01T05:32:39.616Z,6292.00
2018-07-01T05:33:39.671Z,6388.00
2018-07-01T05:34:39.656Z,6516.00
2018-07-01T05:35:39.685Z,6664.00
2018-07-01T05:36:39.705Z,6816.00
2018-07-01T05:37:39.728Z,6956.00
2018-07-01T05:38:39.750Z,7080.00
2018-07-01T05:39:39.775Z,7220.00
2018-07-01T05:40:39.796Z,7404.00
2018-07-01T05:41:39.817Z,7620.00
2018-07-01T05:42:39.843Z,7880.00
2018-07-01T05:43:39.869Z,8180.00
2018-07-01T05:44:39.889Z,8484.00
2018-07-01T05:45:39.914Z,8728.00
2018-07-01T05:46:39.936Z,8984.00
2018-07-01T05:47:39.959Z,9312.00
2018-07-01T05:48:39.983Z,9656.00
2018-07-01T05:49:40.006Z,10172.00
2018-07-01T05:50:40.032Z,10684.00
2018-07-01T05:51:40.055Z,11784.00
2018-07-01T05:52:40.080Z,13696.00
2018-07-01T05:53:40.100Z,17024.00
2018-07-01T05:54:40.124Z,20160.00
2018-07-01T05:55:40.149Z,21984.00
2018-07-01T05:56:40.174Z,22048.00
2018-07-01T05:57:40.197Z,20992.00
2018-07-01T05:58:40.222Z,22464.00
2018-07-01T05:59:40.246Z,24672.00
2018-07-01T06:00:40.271Z,26912.00
2018-07-01T06:01:40.297Z,31296.00
2018-07-01T06:02:40.316Z,38368.00
2018-07-01T06:03:40.342Z,44064.00
2018-07-01T06:04:40.369Z,50496.00
2018-07-01T06:05:40.390Z,58912.00
2018-07-01T06:06:40.418Z,59040.00
2018-07-01T06:07:40.439Z,52160.00
2018-07-01T06:08:40.518Z,44000.00
2018-07-01T06:09:40.489Z,40864.00
2018-07-01T06:10:40.513Z,39328.00
2018-07-01T06:11:40.540Z,36832.00
2018-07-01T06:12:40.563Z,34560.00
2018-07-01T06:13:40.590Z,34432.00
2018-07-01T06:14:40.614Z,32128.00
2018-07-01T06:15:40.638Z,27104.00
2018-07-01T06:16:40.701Z,27040.00
2018-07-01T06:17:40.705Z,32000.00
2018-07-01T06:18:40.736Z,30944.00
2018-07-01T06:19:40.735Z,25920.00
2018-07-01T06:20:40.760Z,24992.00
2018-07-01T06:21:40.784Z,26112.00
2018-07-01T06:22:40.813Z,25376.00
2018-07-01T06:23:40.837Z,24992.00
2018-07-01T06:24:40.896Z,23776.00
2018-07-01T06:25:40.886Z,21856.00
2018-07-01T06:26:40.911Z,21056.00
2018-07-01T06:27:40.935Z,20928.00
2018-07-01T06:28:40.965Z,21344.00
2018-07-01T06:29:40.988Z,23328.00
2018-07-01T06:30:41.013Z,22560.00
2018-07-01T06:31:41.039Z,19680.00
2018-07-01T06:32:41.092Z,20064.00
2018-07-01T06:33:41.092Z,20800.00
2018-07-01T06:34:41.117Z,21184.00
2018-07-01T06:35:41.146Z,21472.00
2018-07-01T06:36:41.168Z,21152.00
2018-07-01T06:37:41.193Z,20864.00
2018-07-01T06:38:41.219Z,20512.00
2018-07-01T06:39:41.248Z,20864.00
2018-07-01T06:40:41.276Z,20736.00
2018-07-01T06:41:41.296Z,20608.00
2018-07-01T06:42:41.327Z,20672.00
2018-07-01T06:43:41.350Z,21888.00
2018-07-01T06:44:41.376Z,24896.00
2018-07-01T06:45:41.404Z,25568.00
2018-07-01T06:46:41.430Z,23232.00
2018-07-01T06:47:41.459Z,21024.00
2018-07-01T06:48:41.485Z,21824.00
2018-07-01T06:49:41.508Z,23296.00
2018-07-01T06:50:41.538Z,24384.00
2018-07-01T06:51:41.565Z,24864.00
2018-07-01T06:52:41.590Z,25920.00
2018-07-01T06:53:41.618Z,27296.00
2018-07-01T06:54:41.641Z,27616.00
2018-07-01T06:55:41.669Z,27136.00
2018-07-01T06:56:41.699Z,25888.00
2018-07-01T06:57:41.723Z,26432.00
2018-07-01T06:58:41.750Z,27840.00
2018-07-01T06:59:41.777Z,29632.00
2018-07-01T07:00:41.808Z,31648.00
2018-07-01T07:01:41.835Z,34624.00
2018-07-01T07:02:41.862Z,38464.00
2018-07-01T07:03:41.888Z,40640.00
2018-07-01T07:04:41.916Z,43360.00
2018-07-01T07:05:41.940Z,46784.00
2018-07-01T07:06:41.971Z,48704.00
2018-07-01T07:07:42.021Z,47104.00
2018-07-01T07:08:42.027Z,44320.00
2018-07-01T07:09:42.054Z,41600.00
2018-07-01T07:10:42.079Z,38688.00
2018-07-01T07:11:42.109Z,36352.00
2018-07-01T07:12:42.134Z,35552.00
2018-07-01T07:13:42.162Z,35072.00
2018-07-01T07:14:42.189Z,35520.00
2018-07-01T07:15:42.216Z,41952.00
2018-07-01T07:16:42.248Z,53024.00
2018-07-01T07:17:42.274Z,57312.00
2018-07-01T07:18:42.305Z,56320.00
2018-07-01T07:19:42.331Z,54368.00
2018-07-01T07:20:42.362Z,54304.00
2018-07-01T07:21:42.384Z,53984.00
2018-07-01T07:22:42.416Z,56416.00
2018-07-01T07:23:42.443Z,57920.00
2018-07-01T07:24:42.470Z,58240.00
2018-07-01T07:25:42.501Z,59264.00
2018-07-01T07:26:42.532Z,60352.00
2018-07-01T07:27:42.554Z,60256.00
2018-07-01T07:28:42.586Z,61376.00
2018-07-01T07:29:42.611Z,62560.00
2018-07-01T07:30:42.642Z,62880.00
2018-07-01T07:31:42.673Z,64512.00
2018-07-01T07:32:42.699Z,63392.00
2018-07-01T07:33:42.726Z,62752.00
2018-07-01T07:34:42.755Z,62880.00
2018-07-01T07:35:42.785Z,63936.00
2018-07-01T07:36:42.815Z,63200.00
2018-07-01T07:37:42.840Z,64000.00
2018-07-01T07:38:42.869Z,63488.00
2018-07-01T07:39:42.910Z,61472.00
2018-07-01T07:40:42.927Z,61472.00
2018-07-01T07:41:45.983Z,64032.00
2018-07-01T07:42:42.989Z,66176.00
2018-07-01T07:43:43.017Z,65472.00
2018-07-01T07:44:43.049Z,65568.00
2018-07-01T07:45:43.071Z,66880.00
2018-07-01T07:46:43.100Z,64928.00
2018-07-01T07:47:43.132Z,64480.00
2018-07-01T07:48:43.209Z,63840.00
2018-07-01T07:49:43.187Z,61408.00
2018-07-01T07:50:43.218Z,60800.00
2018-07-01T07:51:43.249Z,62912.00
2018-07-01T07:52:43.276Z,63936.00
2018-07-01T07:53:43.305Z,64800.00
2018-07-01T07:54:43.333Z,66400.00
2018-07-01T07:55:43.366Z,65792.00
2018-07-01T07:56:43.394Z,64800.00
2018-07-01T07:57:43.422Z,65760.00
2018-07-01T07:58:43.455Z,65376.00
2018-07-01T07:59:43.484Z,64352.00
2018-07-01T08:00:43.510Z,62400.00
2018-07-01T08:01:43.539Z,62176.00
2018-07-01T08:02:43.573Z,62912.00
2018-07-01T08:03:43.600Z,62656.00
2018-07-01T08:04:43.629Z,62720.00
2018-07-01T08:05:43.661Z,63200.00
2018-07-01T08:06:43.690Z,62752.00
2018-07-01T08:07:43.717Z,62272.00
2018-07-01T08:08:43.749Z,59584.00
2018-07-01T08:09:43.781Z,60352.00
2018-07-01T08:10:43.808Z,63392.00
2018-07-01T08:11:43.839Z,63104.00
2018-07-01T08:12:43.891Z,64352.00
2018-07-01T08:13:43.898Z,64768.00
2018-07-01T08:14:43.925Z,64768.00
2018-07-01T08:15:43.957Z,64352.00
2018-07-01T08:16:43.989Z,64992.00
2018-07-01T08:17:44.020Z,64800.00
2018-07-01T08:18:44.047Z,65728.00
2018-07-01T08:19:44.074Z,66048.00
2018-07-01T08:20:44.105Z,66272.00
2018-07-01T08:21:44.135Z,65216.00
2018-07-01T08:22:44.167Z,64000.00
2018-07-01T08:23:44.197Z,65728.00
2018-07-01T08:24:44.227Z,66720.00
2018-07-01T08:25:44.257Z,67520.00
2018-07-01T08:26:44.287Z,67904.00
2018-07-01T08:27:44.313Z,67968.00
2018-07-01T08:28:44.347Z,69696.00
2018-07-01T08:29:44.376Z,71008.00
2018-07-01T08:30:44.405Z,71136.00
2018-07-01T08:31:44.438Z,70560.00
2018-07-01T08:32:44.467Z,70240.00
2018-07-01T08:33:44.497Z,69312.00
2018-07-01T08:34:44.531Z,66656.00
2018-07-01T08:35:44.558Z,66048.00
2018-07-01T08:36:44.591Z,66624.00
2018-07-01T08:37:44.622Z,67072.00
2018-07-01T08:38:44.653Z,66816.00
2018-07-01T08:39:44.680Z,67744.00
2018-07-01T08:40:44.711Z,69120.00
2018-07-01T08:41:44.745Z,70272.00
2018-07-01T08:42:44.773Z,72192.00
2018-07-01T08:43:44.803Z,74016.00
2018-07-01T08:44:44.834Z,74880.00
2018-07-01T08:45:44.864Z,75232.00
2018-07-01T08:46:44.896Z,75648.00
2018-07-01T08:47:44.926Z,75424.00
2018-07-01T08:48:44.958Z,75008.00
2018-07-01T08:49:44.990Z,77152.00
2018-07-01T08:50:45.028Z,76544.00
2018-07-01T08:51:45.054Z,74592.00
2018-07-01T08:52:45.088Z,73696.00
2018-07-01T08:53:45.114Z,73120.00
2018-07-01T08:54:45.146Z,73760.00
2018-07-01T08:56:45.205Z,75296.00
2018-07-01T08:57:45.243Z,75264.00
2018-07-01T08:58:45.273Z,76000.00
2018-07-01T08:59:45.301Z,77088.00
2018-07-01T09:00:45.333Z,77888.00
2018-07-01T09:01:45.361Z,78656.00
2018-07-01T09:02:45.426Z,79296.00
2018-07-01T09:03:45.426Z,77856.00
2018-07-01T09:04:45.456Z,77120.00
2018-07-01T09:05:45.485Z,77536.00
2018-07-01T09:06:45.518Z,78688.00
2018-07-01T09:07:45.549Z,77504.00
2018-07-01T09:08:45.585Z,76320.00
2018-07-01T09:09:45.612Z,73440.00
2018-07-01T09:10:45.641Z,72096.00
2018-07-01T09:11:45.672Z,75744.00
2018-07-01T09:12:45.702Z,78304.00
2018-07-01T09:13:45.734Z,78272.00
2018-07-01T09:14:45.767Z,78496.00
2018-07-01T09:15:45.800Z,79840.00
2018-07-01T09:16:45.843Z,79392.00
2018-07-01T09:17:45.860Z,78400.00
2018-07-01T09:18:45.890Z,77696.00
2018-07-01T09:19:45.923Z,75680.00
2018-07-01T09:20:45.952Z,76160.00
2018-07-01T09:21:45.984Z,78080.00
2018-07-01T09:22:46.014Z,78016.00
2018-07-01T09:23:46.048Z,77664.00
2018-07-01T09:24:46.081Z,76128.00
2018-07-01T09:25:46.110Z,76352.00
2018-07-01T09:26:46.140Z,78464.00
2018-07-01T09:27:46.170Z,77568.00
2018-07-01T09:28:46.241Z,75168.00
2018-07-01T09:29:46.232Z,74208.00
2018-07-01T09:30:46.265Z,74080.00
2018-07-01T09:31:46.294Z,72512.00
2018-07-01T09:32:49.016Z,69568.00
2018-07-01T09:33:48.981Z,70752.00
2018-07-01T09:34:46.465Z,71200.00
2018-07-01T09:35:46.422Z,72544.00
2018-07-01T09:36:46.457Z,74304.00
2018-07-01T09:37:46.485Z,75136.00
2018-07-01T09:38:46.514Z,77216.00
2018-07-01T09:39:46.549Z,76128.00
2018-07-01T09:40:46.585Z,73408.00
2018-07-01T09:41:46.609Z,74176.00
2018-07-01T09:42:46.640Z,75072.00
2018-07-01T09:43:46.675Z,72768.00
2018-07-01T09:44:46.710Z,70112.00
2018-07-01T09:45:46.738Z,71424.00
2018-07-01T09:46:46.770Z,72832.00
2018-07-01T09:47:46.803Z,70560.00
2018-07-01T09:48:47.850Z,66976.00
2018-07-01T09:49:46.865Z,65920.00
2018-07-01T09:50:46.944Z,68160.00
2018-07-01T09:51:46.924Z,70848.00
2018-07-01T09:52:46.958Z,70784.00
2018-07-01T09:53:46.988Z,70944.00
2018-07-01T09:54:47.019Z,70688.00
2018-07-01T09:55:47.050Z,69888.00
2018-07-01T09:56:47.081Z,68160.00
2018-07-01T09:57:47.117Z,68608.00
2018-07-01T09:58:47.143Z,68352.00
2018-07-01T09:59:47.178Z,68512.00
2018-07-01T10:00:47.203Z,68448.00
2018-07-01T10:01:47.236Z,69760.00
2018-07-01T10:02:47.268Z,70944.00
2018-07-01T10:03:47.299Z,69248.00
2018-07-01T10:04:47.330Z,66816.00
2018-07-01T10:05:47.359Z,66944.00
2018-07-01T10:06:47.387Z,68128.00
2018-07-01T10:07:47.417Z,70432.00
2018-07-01T10:08:47.450Z,68832.00
2018-07-01T10:09:47.478Z,67488.00
2018-07-01T10:10:47.512Z,68512.00
2018-07-01T10:11:47.543Z,68896.00
2018-07-01T10:12:47.572Z,68576.00
2018-07-01T10:13:47.600Z,66208.00
2018-07-01T10:14:47.631Z,66016.00
2018-07-01T10:15:47.664Z,67008.00
2018-07-01T10:16:47.694Z,65856.00
2018-07-01T10:17:47.722Z,66208.00
2018-07-01T10:18:47.815Z,64704.00
2018-07-01T10:19:47.784Z,63456.00
2018-07-01T10:20:47.819Z,65344.00
2018-07-01T10:21:47.850Z,65152.00
2018-07-01T10:22:47.874Z,64896.00
2018-07-01T10:23:47.906Z,65344.00
2018-07-01T10:24:47.940Z,64256.00
2018-07-01T10:25:47.970Z,65760.00
2018-07-01T10:26:47.997Z,67040.00
2018-07-01T10:27:48.030Z,65376.00
2018-07-01T10:28:48.060Z,62944.00
2018-07-01T10:29:48.089Z,64000.00
2018-07-01T10:30:48.122Z,63808.00
2018-07-01T10:31:48.151Z,64192.00
2018-07-01T10:32:48.182Z,64160.00
2018-07-01T10:33:48.215Z,65056.00
2018-07-01T10:34:48.240Z,65856.00
2018-07-01T10:35:48.273Z,66080.00
2018-07-01T10:36:48.302Z,66656.00
2018-07-01T10:37:48.334Z,66176.00
2018-07-01T10:38:48.365Z,62880.00
2018-07-01T10:39:48.395Z,62496.00
2018-07-01T10:40:48.423Z,63360.00
2018-07-01T10:41:48.455Z,63520.00
2018-07-01T10:42:48.486Z,63168.00
2018-07-01T10:43:48.519Z,63488.00
2018-07-01T10:44:48.545Z,64576.00
2018-07-01T10:45:48.638Z,63680.00
2018-07-01T10:46:48.610Z,62752.00
2018-07-01T10:47:48.639Z,62496.00
2018-07-01T10:48:48.669Z,64512.00
2018-07-01T10:49:48.696Z,64416.00
2018-07-01T10:50:48.730Z,61920.00
2018-07-01T10:51:48.758Z,58528.00
2018-07-01T10:52:48.789Z,51104.00
2018-07-01T10:53:48.819Z,41152.00
2018-07-01T10:54:48.851Z,32160.00
2018-07-01T10:55:48.884Z,25440.00
2018-07-01T10:56:48.911Z,22944.00
2018-07-01T10:57:48.942Z,23360.00
2018-07-01T10:58:48.974Z,24928.00
2018-07-01T10:59:49.004Z,26848.00
2018-07-01T11:00:49.033Z,28416.00
2018-07-01T11:01:49.066Z,32768.00
2018-07-01T11:02:49.096Z,41440.00
2018-07-01T11:03:49.162Z,50816.00
2018-07-01T11:04:49.155Z,48768.00
2018-07-01T11:05:49.268Z,39040.00
2018-07-01T11:06:49.216Z,32800.00
2018-07-01T11:07:49.250Z,30560.00
2018-07-01T11:08:49.278Z,29856.00
2018-07-01T11:09:49.307Z,27488.00
2018-07-01T11:10:49.341Z,25472.00
2018-07-01T11:11:49.504Z,23936.00
2018-07-01T11:12:49.400Z,22528.00
2018-07-01T11:13:49.431Z,22400.00
2018-07-01T11:14:49.460Z,22560.00
2018-07-01T11:15:49.495Z,22560.00
2018-07-01T11:16:49.522Z,22304.00
2018-07-01T11:17:49.555Z,20960.00
2018-07-01T11:18:49.582Z,19072.00
2018-07-01T11:19:49.614Z,18432.00
2018-07-01T11:20:49.644Z,18496.00
2018-07-01T11:21:49.674Z,18272.00
2018-07-01T11:22:49.706Z,17664.00
2018-07-01T11:23:49.740Z,17568.00
2018-07-01T11:24:49.767Z,18272.00
2018-07-01T11:25:49.800Z,17600.00
2018-07-01T11:26:49.967Z,16932.00
2018-07-01T11:27:49.859Z,16844.00
2018-07-01T11:28:49.890Z,16200.00
2018-07-01T11:29:49.923Z,16384.00
2018-07-01T11:30:49.951Z,16308.00
2018-07-01T11:31:49.984Z,15748.00
2018-07-01T11:32:50.045Z,15124.00
2018-07-01T11:33:50.043Z,14828.00
2018-07-01T11:34:50.076Z,14536.00
2018-07-01T11:35:50.107Z,14648.00
2018-07-01T11:36:50.135Z,14476.00
2018-07-01T11:37:50.165Z,14100.00
2018-07-01T11:38:50.198Z,13848.00
2018-07-01T11:39:50.230Z,13532.00
2018-07-01T11:40:50.260Z,13428.00
2018-07-01T11:41:50.288Z,13332.00
2018-07-01T11:42:50.320Z,13264.00
2018-07-01T11:43:50.350Z,13176.00
2018-07-01T11:44:50.384Z,13072.00
2018-07-01T11:45:50.410Z,12932.00
2018-07-01T11:46:50.440Z,12820.00
2018-07-01T11:47:50.472Z,12888.00
2018-07-01T11:48:50.498Z,12868.00
2018-07-01T11:49:50.530Z,12768.00
2018-07-01T11:50:50.562Z,12652.00
2018-07-01T11:51:50.592Z,12680.00
2018-07-01T11:52:50.619Z,12708.00
2018-07-01T11:53:50.652Z,12628.00
2018-07-01T11:54:50.687Z,12540.00
2018-07-01T11:55:50.712Z,12568.00
2018-07-01T11:56:50.744Z,12540.00
2018-07-01T11:57:50.768Z,12600.00
2018-07-01T11:58:50.799Z,12816.00
2018-07-01T11:59:50.892Z,13380.00
2018-07-01T12:00:50.860Z,13412.00
2018-07-01T12:01:50.895Z,12888.00
2018-07-01T12:02:50.920Z,12792.00
2018-07-01T12:03:50.953Z,12948.00
2018-07-01T12:05:16.204Z,13356.00
2018-07-01T12:05:51.008Z,13484.00
2018-07-01T12:06:51.040Z,13528.00
2018-07-01T12:07:51.070Z,13808.00
2018-07-01T12:08:51.101Z,14608.00
2018-07-01T12:09:51.130Z,15308.00
2018-07-01T12:10:51.159Z,15024.00
2018-07-01T12:11:51.190Z,14840.00
2018-07-01T12:12:51.218Z,15548.00